Time;durP1;ratioP1;P1;durP2;ratioP2;P2;SDS_P1;SDS_P2;PMS_P1;PMS_P2;Temp;Humidity;BMP_temperature;BMP_pressure;BME280_temperature;BME280_humidity;BME280_pressure;Samples;Min_cycle;Max_cycle;Signal;HPM_P1;HPM_P2
2022/12/14 00:01:30;;;;;;;4.00;3.25;;;;;;;;;;5033279;28;20092;-83
2022/12/14 00:03:55;;;;;;;8.23;4.20;;;;;;;;;;5035802;28;20028;-83
2022/12/14 00:06:26;;;;;;;10.85;4.85;;;;;;;;;;5033710;28;20021;-83
2022/12/14 00:09:41;;;;;;;11.43;4.40;;;;;;;;;;5013833;28;20029;-82
2022/12/14 00:12:08;;;;;;;5.90;3.47;;;;;;;;;;5104629;23;20055;-84
2022/12/14 00:14:33;;;;;;;6.63;4.90;;;;;;;;;;5083664;28;20036;-83
2022/12/14 00:16:58;;;;;;;7.63;4.72;;;;;;;;;;5077254;28;20398;-83
2022/12/14 00:19:24;;;;;;;4.68;3.22;;;;;;;;;;5060716;28;20024;-83
2022/12/14 00:21:49;;;;;;;9.93;5.03;;;;;;;;;;5081145;28;20169;-83
2022/12/14 00:24:14;;;;;;;4.57;2.75;;;;;;;;;;5062438;28;20102;-83
2022/12/14 00:26:40;;;;;;;8.25;4.10;;;;;;;;;;5079416;28;20028;-84
2022/12/14 00:29:05;;;;;;;6.78;3.83;;;;;;;;;;5078687;28;20039;-84
2022/12/14 00:31:31;;;;;;;4.85;3.15;;;;;;;;;;5072592;28;20085;-83
2022/12/14 00:33:57;;;;;;;5.40;3.78;;;;;;;;;;5073133;28;20076;-80
2022/12/14 00:36:23;;;;;;;5.18;3.17;;;;;;;;;;5069040;28;20028;-84
2022/12/14 00:38:48;;;;;;;5.63;4.47;;;;;;;;;;5078326;28;20036;-82
2022/12/14 00:41:13;;;;;;;9.80;4.50;;;;;;;;;;5076681;28;20028;-82
2022/12/14 00:43:39;;;;;;;3.20;2.55;;;;;;;;;;5077901;28;20036;-83
2022/12/14 00:46:05;;;;;;;6.85;3.22;;;;;;;;;;5058058;28;20024;-83
2022/12/14 00:48:30;;;;;;;4.50;3.00;;;;;;;;;;5078529;28;20024;-84
2022/12/14 00:50:55;;;;;;;5.78;3.40;;;;;;;;;;5054642;28;20059;-81
2022/12/14 00:53:22;;;;;;;6.65;3.97;;;;;;;;;;5071027;28;20023;-84
2022/12/14 00:55:47;;;;;;;7.60;4.82;;;;;;;;;;5070974;28;20024;-83
2022/12/14 00:58:15;;;;;;;3.67;3.30;;;;;;;;;;5052745;28;20309;-84
2022/12/14 01:00:41;;;;;;;5.97;3.35;;;;;;;;;;5075858;28;20036;-83
2022/12/14 01:03:07;;;;;;;8.00;3.83;;;;;;;;;;5070794;28;20039;-81
2022/12/14 01:05:36;;;;;;;4.68;3.55;;;;;;;;;;5077458;28;21197;-84
2022/12/14 01:08:01;;;;;;;6.38;3.78;;;;;;;;;;5079201;28;20024;-84
2022/12/14 01:10:28;;;;;;;9.73;4.93;;;;;;;;;;5075814;28;20028;-81
2022/12/14 01:12:54;;;;;;;8.10;3.13;;;;;;;;;;5064903;28;21307;-82
2022/12/14 01:15:20;;;;;;;5.20;3.00;;;;;;;;;;5061421;28;20028;-83
2022/12/14 01:17:45;;;;;;;6.55;4.07;;;;;;;;;;5079803;28;20062;-84
2022/12/14 01:20:11;;;;;;;6.40;3.67;;;;;;;;;;5073223;28;20020;-84
2022/12/14 01:22:36;;;;;;;5.18;3.67;;;;;;;;;;5082042;28;20502;-82
2022/12/14 01:25:03;;;;;;;10.45;4.95;;;;;;;;;;5077632;28;20032;-82
2022/12/14 01:27:28;;;;;;;9.27;4.00;;;;;;;;;;5077229;28;20024;-85
2022/12/14 01:29:53;;;;;;;4.75;3.80;;;;;;;;;;5075188;28;20081;-82
2022/12/14 01:32:19;;;;;;;5.13;3.22;;;;;;;;;;5086995;28;20077;-84
2022/12/14 01:34:47;;;;;;;7.10;4.18;;;;;;;;;;5081242;28;20022;-84
2022/12/14 01:37:12;;;;;;;5.82;3.83;;;;;;;;;;5052897;28;20654;-81
2022/12/14 01:39:37;;;;;;;5.80;4.30;;;;;;;;;;5064669;28;20092;-83
2022/12/14 01:42:02;;;;;;;11.02;4.93;;;;;;;;;;5067649;28;20032;-81
2022/12/14 01:44:28;;;;;;;8.10;3.88;;;;;;;;;;5096305;23;20021;-84
2022/12/14 01:47:01;;;;;;;7.22;4.50;;;;;;;;;;5036712;28;20037;-80
2022/12/14 01:49:37;;;;;;;4.97;3.15;;;;;;;;;;5038209;28;21027;-84
2022/12/14 01:52:11;;;;;;;7.60;3.78;;;;;;;;;;5022369;28;20131;-82
2022/12/14 01:54:41;;;;;;;8.23;4.20;;;;;;;;;;5038969;28;20041;-82
2022/12/14 01:57:08;;;;;;;6.95;3.55;;;;;;;;;;5005512;28;20510;-84
2022/12/14 01:59:39;;;;;;;8.45;4.18;;;;;;;;;;5009120;28;20021;-80
2022/12/14 02:02:07;;;;;;;7.90;4.10;;;;;;;;;;5020035;28;20037;-80
2022/12/14 02:04:40;;;;;;;5.65;3.58;;;;;;;;;;5001773;28;20514;-81
2022/12/14 02:07:06;;;;;;;6.30;3.88;;;;;;;;;;5022516;28;20030;-80
2022/12/14 02:09:35;;;;;;;6.72;4.45;;;;;;;;;;5025006;28;20040;-80
2022/12/14 02:12:05;;;;;;;9.20;4.72;;;;;;;;;;5030689;28;20436;-80
2022/12/14 02:14:33;;;;;;;7.10;3.63;;;;;;;;;;5031210;28;20124;-80
2022/12/14 02:16:59;;;;;;;9.23;4.65;;;;;;;;;;5010447;28;20083;-81
2022/12/14 02:19:24;;;;;;;7.18;3.97;;;;;;;;;;5029016;28;20041;-81
2022/12/14 02:22:02;;;;;;;6.05;3.95;;;;;;;;;;5028048;28;20037;-81
2022/12/14 02:24:58;;;;;;;8.27;4.35;;;;;;;;;;5022477;28;20072;-80
2022/12/14 02:27:40;;;;;;;3.10;2.25;;;;;;;;;;5023248;28;20036;-80
2022/12/14 02:30:17;;;;;;;7.10;4.63;;;;;;;;;;5024965;28;20049;-81
2022/12/14 02:32:52;;;;;;;6.93;4.25;;;;;;;;;;5025019;28;20115;-81
2022/12/14 02:35:25;;;;;;;7.68;4.45;;;;;;;;;;5020865;28;20040;-80
2022/12/14 02:38:06;;;;;;;4.88;3.58;;;;;;;;;;5022130;28;20044;-81
2022/12/14 02:40:59;;;;;;;10.43;3.78;;;;;;;;;;5023878;28;20037;-81
2022/12/14 02:43:48;;;;;;;6.05;4.05;;;;;;;;;;5040808;28;20037;-80
2022/12/14 02:46:40;;;;;;;7.85;4.28;;;;;;;;;;5023958;28;20040;-80
2022/12/14 02:49:22;;;;;;;;;;;;;;;;;;5020402;28;20052;-80
2022/12/14 02:51:56;;;;;;;7.95;3.83;;;;;;;;;;5044414;28;19917;-81
2022/12/14 02:54:45;;;;;;;7.13;3.05;;;;;;;;;;5024678;28;20044;-81
2022/12/14 02:57:18;;;;;;;16.17;4.32;;;;;;;;;;5030894;28;20033;-81
2022/12/14 02:59:45;;;;;;;6.22;4.75;;;;;;;;;;5014104;28;20507;-80
2022/12/14 03:02:13;;;;;;;7.35;3.80;;;;;;;;;;5029902;28;20060;-80
2022/12/14 03:04:44;;;;;;;7.60;4.22;;;;;;;;;;5029750;28;20640;-81
2022/12/14 03:07:31;;;;;;;7.72;4.78;;;;;;;;;;5028953;28;20468;-81
2022/12/14 03:10:11;;;;;;;6.40;4.13;;;;;;;;;;5019170;28;20048;-80
2022/12/14 03:12:41;;;;;;;7.22;3.95;;;;;;;;;;5023159;28;20034;-80
2022/12/14 03:15:09;;;;;;;9.18;4.53;;;;;;;;;;5009018;28;21523;-80
2022/12/14 03:17:37;;;;;;;4.68;2.88;;;;;;;;;;5008352;28;20045;-81
2022/12/14 03:20:17;;;;;;;7.45;4.43;;;;;;;;;;5022318;28;20687;-80
2022/12/14 03:22:59;;;;;;;5.75;4.00;;;;;;;;;;5022836;28;20041;-81
2022/12/14 03:25:33;;;;;;;9.07;4.30;;;;;;;;;;5005671;28;20042;-81
2022/12/14 03:28:04;;;;;;;3.97;3.28;;;;;;;;;;5008170;28;20033;-81
2022/12/14 03:30:32;;;;;;;5.95;4.07;;;;;;;;;;5010106;28;21453;-81
2022/12/14 03:33:03;;;;;;;10.88;5.07;;;;;;;;;;5023369;28;20120;-81
2022/12/14 03:35:56;;;;;;;9.30;5.22;;;;;;;;;;5023132;28;20053;-81
2022/12/14 03:38:31;;;;;;;11.00;5.53;;;;;;;;;;5019648;28;20103;-81
2022/12/14 03:40:59;;;;;;;7.22;4.18;;;;;;;;;;5027676;28;20044;-81
2022/12/14 03:43:53;;;;;;;7.63;3.92;;;;;;;;;;5028848;28;20033;-81
2022/12/14 03:46:37;;;;;;;8.70;4.15;;;;;;;;;;5027192;28;20490;-81
2022/12/14 03:49:17;;;;;;;10.38;5.43;;;;;;;;;;5032264;28;20037;-80
2022/12/14 03:52:02;;;;;;;3.97;3.17;;;;;;;;;;5031887;28;20029;-81
2022/12/14 03:54:30;;;;;;;4.22;2.90;;;;;;;;;;5030515;28;20483;-80
2022/12/14 03:57:06;;;;;;;6.55;4.72;;;;;;;;;;5028766;28;20033;-80
2022/12/14 03:59:48;;;;;;;7.78;5.40;;;;;;;;;;5025704;28;20033;-81
2022/12/14 04:02:21;;;;;;;10.25;5.18;;;;;;;;;;5007898;28;20029;-81
2022/12/14 04:04:54;;;;;;;9.32;4.78;;;;;;;;;;5022081;28;20041;-81
2022/12/14 04:07:37;;;;;;;8.93;4.60;;;;;;;;;;5030541;28;20029;-80
2022/12/14 04:21:45;;;;;;;7.45;4.57;;;;;;;;;;5019778;28;20031;-81
2022/12/14 04:27:11;;;;;;;8.95;5.63;;;;;;;;;;5027540;28;20029;-82
2022/12/14 04:29:59;;;;;;;9.73;6.25;;;;;;;;;;5007804;28;20025;-84
2022/12/14 04:32:30;;;;;;;10.15;5.45;;;;;;;;;;5032668;28;20029;-80
2022/12/14 04:35:03;;;;;;;11.30;5.40;;;;;;;;;;5045639;28;20021;-82
2022/12/14 04:37:30;;;;;;;6.07;4.95;;;;;;;;;;5034841;28;20285;-82
2022/12/14 04:40:04;;;;;;;6.40;4.28;;;;;;;;;;5031035;28;20025;-83
2022/12/14 04:42:33;;;;;;;5.25;3.50;;;;;;;;;;5033973;28;20009;-83
2022/12/14 04:45:05;;;;;;;7.85;4.90;;;;;;;;;;5034730;28;20036;-84
2022/12/14 04:47:37;;;;;;;11.48;5.65;;;;;;;;;;5052030;28;20017;-81
2022/12/14 04:50:11;;;;;;;9.32;5.28;;;;;;;;;;5051159;28;20018;-83
2022/12/14 04:52:45;;;;;;;6.82;5.25;;;;;;;;;;5020823;28;20044;-80
2022/12/14 04:55:39;;;;;;;7.28;4.20;;;;;;;;;;5022365;28;20033;-82
2022/12/14 04:58:14;;;;;;;6.45;4.03;;;;;;;;;;5042791;28;20060;-83
2022/12/14 05:00:57;;;;;;;9.60;4.85;;;;;;;;;;5020822;28;20021;-82
2022/12/14 05:03:30;;;;;;;6.13;4.75;;;;;;;;;;5013138;28;20442;-82
2022/12/14 05:06:01;;;;;;;12.13;4.22;;;;;;;;;;5029312;28;20029;-82
2022/12/14 05:08:36;;;;;;;7.70;5.28;;;;;;;;;;5028790;28;20025;-81
2022/12/14 05:11:06;;;;;;;13.75;6.25;;;;;;;;;;5024030;28;20059;-82
2022/12/14 05:13:40;;;;;;;8.13;5.07;;;;;;;;;;5005882;28;20064;-82
2022/12/14 05:16:06;;;;;;;11.43;6.28;;;;;;;;;;5023594;28;20030;-84
2022/12/14 05:18:37;;;;;;;8.20;5.47;;;;;;;;;;5023763;28;20071;-80
2022/12/14 05:21:03;;;;;;;4.05;3.30;;;;;;;;;;5006711;28;20036;-83
2022/12/14 05:23:28;;;;;;;11.88;6.22;;;;;;;;;;5007636;28;20041;-82
2022/12/14 05:25:54;;;;;;;10.32;5.47;;;;;;;;;;5007358;28;20069;-81
2022/12/14 05:28:19;;;;;;;9.45;6.75;;;;;;;;;;5005679;28;20125;-82
2022/12/14 05:30:47;;;;;;;8.05;5.05;;;;;;;;;;5021976;28;20032;-82
2022/12/14 05:33:18;;;;;;;9.52;6.00;;;;;;;;;;5004449;28;20037;-83
2022/12/14 05:35:44;;;;;;;11.77;5.57;;;;;;;;;;5000526;28;20029;-82
2022/12/14 05:38:09;;;;;;;3.03;2.70;;;;;;;;;;5025882;28;20017;-82
2022/12/14 05:40:35;;;;;;;10.25;5.00;;;;;;;;;;5016717;28;20039;-82
2022/12/14 05:43:10;;;;;;;7.95;4.90;;;;;;;;;;5027324;28;20004;-82
2022/12/14 05:45:36;;;;;;;11.80;6.07;;;;;;;;;;5030645;28;20172;-82
2022/12/14 05:48:01;;;;;;;8.85;4.43;;;;;;;;;;5012916;28;20093;-82
2022/12/14 05:50:27;;;;;;;11.40;7.05;;;;;;;;;;5012252;28;20038;-82
2022/12/14 05:52:54;;;;;;;13.18;6.25;;;;;;;;;;5013636;28;20037;-83
2022/12/14 05:55:19;;;;;;;8.95;5.32;;;;;;;;;;5026370;28;20037;-80
2022/12/14 05:57:45;;;;;;;15.00;6.15;;;;;;;;;;5029145;28;20039;-81
2022/12/14 06:00:11;;;;;;;11.20;6.00;;;;;;;;;;5013883;28;20026;-80
2022/12/14 06:02:36;;;;;;;7.30;5.25;;;;;;;;;;5016745;28;20165;-80
2022/12/14 06:05:01;;;;;;;10.15;5.70;;;;;;;;;;5015389;28;20022;-78
2022/12/14 06:07:27;;;;;;;12.50;5.80;;;;;;;;;;5025880;28;20033;-80
2022/12/14 06:09:52;;;;;;;9.25;5.22;;;;;;;;;;5017730;28;20028;-80
2022/12/14 06:12:17;;;;;;;9.32;6.03;;;;;;;;;;5004419;28;20093;-80
2022/12/14 06:14:43;;;;;;;8.98;5.80;;;;;;;;;;5007261;28;20052;-80
2022/12/14 06:17:08;;;;;;;8.20;5.07;;;;;;;;;;4999880;28;20587;-79
2022/12/14 06:19:33;;;;;;;6.75;4.40;;;;;;;;;;5016541;28;20368;-80
2022/12/14 06:22:00;;;;;;;10.52;5.53;;;;;;;;;;5015926;28;20173;-80
2022/12/14 06:24:25;;;;;;;8.35;5.10;;;;;;;;;;5019000;28;20021;-80
2022/12/14 06:26:50;;;;;;;8.55;5.78;;;;;;;;;;5024688;28;20053;-80
2022/12/14 06:29:26;;;;;;;11.57;5.38;;;;;;;;;;5024990;28;21597;-79
2022/12/14 06:32:18;;;;;;;10.38;6.55;;;;;;;;;;5021769;28;20112;-80
2022/12/14 06:34:46;;;;;;;9.70;6.05;;;;;;;;;;5022250;28;20044;-83
2022/12/14 06:37:12;;;;;;;8.88;4.57;;;;;;;;;;5025009;28;21416;-81
2022/12/14 06:39:38;;;;;;;10.30;6.82;;;;;;;;;;5023074;28;20025;-80
2022/12/14 06:42:04;;;;;;;12.32;6.45;;;;;;;;;;5021950;28;20090;-82
2022/12/14 06:44:29;;;;;;;10.95;6.88;;;;;;;;;;5021199;28;20057;-82
2022/12/14 06:46:54;;;;;;;12.68;7.03;;;;;;;;;;5019399;28;20028;-80
2022/12/14 06:49:20;;;;;;;11.90;7.03;;;;;;;;;;5037158;28;20037;-81
2022/12/14 06:51:46;;;;;;;11.90;5.95;;;;;;;;;;5036815;28;20021;-80
2022/12/14 06:54:13;;;;;;;12.02;6.90;;;;;;;;;;5009702;28;21214;-80
2022/12/14 06:56:42;;;;;;;12.88;7.40;;;;;;;;;;5022957;28;20037;-82
2022/12/14 06:59:08;;;;;;;10.40;7.10;;;;;;;;;;5026814;28;20032;-80
2022/12/14 07:01:34;;;;;;;11.93;5.50;;;;;;;;;;5040000;28;20025;-81
2022/12/14 07:04:04;;;;;;;10.15;6.10;;;;;;;;;;5025124;28;20033;-81
2022/12/14 07:06:36;;;;;;;12.15;5.93;;;;;;;;;;5029139;28;20025;-80
2022/12/14 07:09:03;;;;;;;7.97;5.80;;;;;;;;;;5019835;28;20025;-81
2022/12/14 07:11:30;;;;;;;11.75;8.13;;;;;;;;;;5009938;28;20045;-81
2022/12/14 07:13:56;;;;;;;13.65;6.20;;;;;;;;;;5027488;28;20036;-81
2022/12/14 07:16:24;;;;;;;9.88;6.72;;;;;;;;;;5028936;28;20072;-81
2022/12/14 07:18:52;;;;;;;10.43;6.47;;;;;;;;;;5011889;28;20087;-81
2022/12/14 07:21:19;;;;;;;13.05;6.45;;;;;;;;;;5029362;28;20483;-81
2022/12/14 07:23:46;;;;;;;14.05;7.35;;;;;;;;;;5027849;28;20034;-81
2022/12/14 07:26:18;;;;;;;12.85;7.72;;;;;;;;;;5016610;28;20032;-81
2022/12/14 07:28:47;;;;;;;15.27;7.43;;;;;;;;;;5025837;28;20033;-83
2022/12/14 07:31:33;;;;;;;9.13;5.47;;;;;;;;;;5019353;28;20057;-82
2022/12/14 07:33:59;;;;;;;11.05;6.47;;;;;;;;;;5030049;28;20026;-83
2022/12/14 07:36:26;;;;;;;18.40;8.27;;;;;;;;;;5010562;28;20029;-82
2022/12/14 07:38:54;;;;;;;9.43;6.28;;;;;;;;;;5015124;28;20033;-82
2022/12/14 07:41:22;;;;;;;7.80;5.45;;;;;;;;;;5022009;28;20083;-83
2022/12/14 07:43:47;;;;;;;13.65;7.20;;;;;;;;;;5002174;28;20026;-81
2022/12/14 07:52:58;;;;;;;17.27;8.60;;;;;;;;;;5024864;28;20127;-82
2022/12/14 08:02:25;;;;;;;10.40;7.23;;;;;;;;;;5022951;28;20063;-82
2022/12/14 08:04:51;;;;;;;14.95;6.95;;;;;;;;;;5015950;28;20041;-83
2022/12/14 08:08:20;;;;;;;;;;;;;;;;;;;;;
2022/12/14 08:11:12;;;;;;;15.02;7.85;;;;;;;;;;4982040;28;20047;-83
2022/12/14 08:13:38;;;;;;;14.25;7.65;;;;;;;;;;5020037;28;20041;-84
2022/12/14 08:16:10;;;;;;;11.93;6.72;;;;;;;;;;5014009;28;20032;-83
2022/12/14 08:18:36;;;;;;;14.32;6.53;;;;;;;;;;5038465;28;20494;-83
2022/12/14 08:21:03;;;;;;;10.23;6.13;;;;;;;;;;5028670;28;20033;-82
2022/12/14 08:23:29;;;;;;;20.27;7.15;;;;;;;;;;5012715;28;20026;-82
2022/12/14 08:25:56;;;;;;;12.88;7.03;;;;;;;;;;5035878;28;20048;-83
2022/12/14 08:28:47;;;;;;;11.30;6.43;;;;;;;;;;5034578;28;20025;-82
2022/12/14 08:31:16;;;;;;;9.20;6.07;;;;;;;;;;5037684;28;20025;-82
2022/12/14 08:33:42;;;;;;;13.40;6.57;;;;;;;;;;5028427;28;20132;-83
2022/12/14 08:36:17;;;;;;;9.60;6.30;;;;;;;;;;5040552;28;20017;-85
2022/12/14 08:38:43;;;;;;;14.32;8.52;;;;;;;;;;5021664;28;20029;-84
2022/12/14 08:41:13;;;;;;;14.77;8.25;;;;;;;;;;5033266;28;20163;-82
2022/12/14 08:43:43;;;;;;;14.32;7.63;;;;;;;;;;5024866;28;20495;-83
2022/12/14 08:46:09;;;;;;;14.25;7.82;;;;;;;;;;5036223;28;20041;-82
2022/12/14 08:48:35;;;;;;;13.20;8.13;;;;;;;;;;5030082;28;20037;-82
2022/12/14 08:51:05;;;;;;;15.52;8.30;;;;;;;;;;5057637;28;20025;-81
2022/12/14 08:53:31;;;;;;;13.55;7.93;;;;;;;;;;5036564;28;20143;-82
2022/12/14 08:55:57;;;;;;;9.40;6.25;;;;;;;;;;5058365;28;20499;-82
2022/12/14 08:58:23;;;;;;;10.23;5.97;;;;;;;;;;5039935;28;20033;-81
2022/12/14 09:01:52;;;;;;;16.50;8.98;;;;;;;;;;5039054;28;20029;-83
2022/12/14 09:04:25;;;;;;;10.57;6.45;;;;;;;;;;4921933;28;20038;-82
2022/12/14 09:06:50;;;;;;;15.50;8.00;;;;;;;;;;4974244;28;20035;-81
2022/12/14 09:09:16;;;;;;;15.98;7.85;;;;;;;;;;5037749;28;20033;-83
2022/12/14 09:11:41;;;;;;;19.30;6.72;;;;;;;;;;5014962;28;20116;-82
2022/12/14 09:14:07;;;;;;;11.13;7.90;;;;;;;;;;5035340;28;20029;-82
2022/12/14 09:16:32;;;;;;;11.15;7.13;;;;;;;;;;5016035;28;20025;-83
2022/12/14 09:18:58;;;;;;;16.67;8.57;;;;;;;;;;5016057;28;20083;-82
2022/12/14 09:21:23;;;;;;;17.38;9.65;;;;;;;;;;5015855;28;20028;-82
2022/12/14 09:23:49;;;;;;;16.48;10.68;;;;;;;;;;5027662;28;20437;-81
2022/12/14 09:26:17;;;;;;;18.45;9.25;;;;;;;;;;5024105;28;20021;-81
2022/12/14 09:28:49;;;;;;;14.90;8.40;;;;;;;;;;5035238;28;20084;-82
2022/12/14 09:31:16;;;;;;;18.00;10.57;;;;;;;;;;5017267;28;20029;-81
2022/12/14 09:33:41;;;;;;;8.50;5.65;;;;;;;;;;5017074;28;20117;-81
2022/12/14 09:36:11;;;;;;;21.27;8.75;;;;;;;;;;5019033;28;20112;-81
2022/12/14 09:38:38;;;;;;;14.02;8.82;;;;;;;;;;5041745;28;20119;-82
2022/12/14 09:41:05;;;;;;;14.40;7.35;;;;;;;;;;5038532;28;20032;-81
2022/12/14 09:43:41;;;;;;;17.20;8.45;;;;;;;;;;5058251;28;20170;-82
2022/12/14 09:46:31;;;;;;;16.77;9.73;;;;;;;;;;5028033;28;20025;-82
2022/12/14 09:48:58;;;;;;;15.20;7.85;;;;;;;;;;5017821;28;20030;-81
2022/12/14 09:51:31;;;;;;;20.42;9.88;;;;;;;;;;5006375;28;20044;-82
2022/12/14 09:54:11;;;;;;;19.83;10.15;;;;;;;;;;5019781;28;20025;-82
2022/12/14 09:56:37;;;;;;;19.85;9.50;;;;;;;;;;5032724;28;20035;-83
2022/12/14 09:59:04;;;;;;;13.23;7.85;;;;;;;;;;5036417;28;20035;-82
2022/12/14 10:01:40;;;;;;;13.05;7.75;;;;;;;;;;5055527;28;20113;-82
2022/12/14 10:04:08;;;;;;;17.20;8.05;;;;;;;;;;5041049;28;20014;-82
2022/12/14 10:06:46;;;;;;;14.90;7.75;;;;;;;;;;5034579;28;20039;-82
2022/12/14 10:09:39;;;;;;;14.15;7.22;;;;;;;;;;5018026;28;20040;-82
2022/12/14 10:12:23;;;;;;;14.07;8.98;;;;;;;;;;5037410;28;20499;-82
2022/12/14 10:14:48;;;;;;;18.60;8.68;;;;;;;;;;5045356;28;20491;-82
2022/12/14 10:17:29;;;;;;;13.38;7.47;;;;;;;;;;5017403;28;20029;-82
2022/12/14 10:19:59;;;;;;;18.00;8.85;;;;;;;;;;5017424;28;20506;-82
2022/12/14 10:22:33;;;;;;;17.48;9.90;;;;;;;;;;5017659;28;20029;-82
2022/12/14 10:25:04;;;;;;;12.70;8.25;;;;;;;;;;5016228;28;20708;-82
2022/12/14 10:27:32;;;;;;;15.77;9.10;;;;;;;;;;5032784;28;20021;-82
2022/12/14 10:30:00;;;;;;;13.75;7.85;;;;;;;;;;5062756;28;20096;-81
2022/12/14 10:32:31;;;;;;;17.83;9.55;;;;;;;;;;5042583;28;20039;-82
2022/12/14 10:34:58;;;;;;;15.07;8.00;;;;;;;;;;5035742;28;20052;-83
2022/12/14 10:37:24;;;;;;;17.20;10.07;;;;;;;;;;5008759;28;20041;-83
2022/12/14 10:40:08;;;;;;;16.73;7.50;;;;;;;;;;5006790;28;20024;-83
2022/12/14 10:43:19;;;;;;;12.63;6.97;;;;;;;;;;5021297;28;20083;-85
2022/12/14 10:46:11;;;;;;;18.15;9.20;;;;;;;;;;5038812;28;20037;-85
2022/12/14 10:48:36;;;;;;;20.38;8.90;;;;;;;;;;5035586;28;20026;-83
2022/12/14 10:51:21;;;;;;;16.90;8.82;;;;;;;;;;5022098;28;20057;-82
2022/12/14 10:53:54;;;;;;;17.88;9.30;;;;;;;;;;5020059;28;20033;-83
2022/12/14 10:56:30;;;;;;;18.60;9.85;;;;;;;;;;5009839;28;20018;-83
2022/12/14 10:59:17;;;;;;;15.18;8.38;;;;;;;;;;5036973;28;20048;-83
2022/12/14 11:01:45;;;;;;;14.20;9.43;;;;;;;;;;5040779;28;20037;-82
2022/12/14 11:04:34;;;;;;;15.68;9.55;;;;;;;;;;5067872;28;20021;-83
2022/12/14 11:07:02;;;;;;;15.55;9.30;;;;;;;;;;5036583;28;20026;-81
2022/12/14 11:09:28;;;;;;;16.60;8.90;;;;;;;;;;5053590;28;20044;-82
2022/12/14 11:12:16;;;;;;;21.40;11.57;;;;;;;;;;5035005;28;20037;-81
2022/12/14 11:14:56;;;;;;;15.38;8.60;;;;;;;;;;5029209;28;20036;-83
2022/12/14 11:17:40;;;;;;;17.00;8.18;;;;;;;;;;5036762;28;20039;-83
2022/12/14 11:20:08;;;;;;;16.13;8.65;;;;;;;;;;5051041;28;20025;-83
2022/12/14 11:22:52;;;;;;;19.42;9.20;;;;;;;;;;5035470;28;20052;-83
2022/12/14 11:25:37;;;;;;;15.45;8.25;;;;;;;;;;5026444;28;20024;-84
2022/12/14 11:28:16;;;;;;;13.15;8.32;;;;;;;;;;5012884;28;20041;-81
2022/12/14 11:31:02;;;;;;;15.63;9.05;;;;;;;;;;5017288;28;20067;-83
2022/12/14 11:33:38;;;;;;;16.88;8.23;;;;;;;;;;5051562;28;20021;-83
2022/12/14 11:36:04;;;;;;;20.52;9.10;;;;;;;;;;5034789;28;20040;-82
2022/12/14 11:38:31;;;;;;;16.58;9.38;;;;;;;;;;5035187;28;20025;-81
2022/12/14 11:40:59;;;;;;;19.38;10.45;;;;;;;;;;5047934;28;20439;-84
2022/12/14 11:43:33;;;;;;;19.70;10.85;;;;;;;;;;5037515;28;20005;-81
2022/12/14 11:46:00;;;;;;;22.08;10.25;;;;;;;;;;5056287;28;20033;-79
2022/12/14 11:48:26;;;;;;;19.80;9.70;;;;;;;;;;5026684;28;20029;-78
2022/12/14 11:50:54;;;;;;;17.23;9.23;;;;;;;;;;5039705;28;20029;-78
2022/12/14 11:53:21;;;;;;;20.08;10.52;;;;;;;;;;5044227;28;20025;-77
2022/12/14 11:55:56;;;;;;;19.85;10.65;;;;;;;;;;5043158;28;20029;-79
2022/12/14 11:58:26;;;;;;;16.30;9.70;;;;;;;;;;5015922;28;20038;-84
2022/12/14 12:01:10;;;;;;;19.08;10.20;;;;;;;;;;5037985;28;20030;-80
2022/12/14 12:03:41;;;;;;;16.70;9.32;;;;;;;;;;5036940;28;20028;-80
2022/12/14 12:06:10;;;;;;;22.23;10.07;;;;;;;;;;5035303;28;20036;-81
2022/12/14 12:08:40;;;;;;;19.73;9.13;;;;;;;;;;5033993;28;20029;-80
2022/12/14 12:11:22;;;;;;;15.65;9.65;;;;;;;;;;5044791;28;20029;-79
2022/12/14 12:13:57;;;;;;;17.63;9.30;;;;;;;;;;5036941;28;20032;-82
2022/12/14 12:16:25;;;;;;;13.80;8.90;;;;;;;;;;5030066;28;20022;-82
2022/12/14 12:19:39;;;;;;;19.35;10.95;;;;;;;;;;5052566;28;20013;-89
2022/12/14 12:22:10;;;;;;;24.55;10.23;;;;;;;;;;5025219;28;20024;-84
2022/12/14 12:24:57;;;;;;;16.70;9.77;;;;;;;;;;5047755;28;20052;-82
2022/12/14 12:27:24;;;;;;;17.70;9.80;;;;;;;;;;5050235;28;20021;-83
2022/12/14 12:30:28;;;;;;;17.73;9.35;;;;;;;;;;5033190;28;20056;-83
2022/12/14 12:32:59;;;;;;;16.52;8.88;;;;;;;;;;5047741;28;20021;-82
2022/12/14 12:35:34;;;;;;;18.60;9.43;;;;;;;;;;5049070;28;20026;-82
2022/12/14 12:38:05;;;;;;;17.65;9.40;;;;;;;;;;5048761;28;20092;-82
2022/12/14 12:40:37;;;;;;;20.80;10.90;;;;;;;;;;5029020;28;20009;-83
2022/12/14 12:43:12;;;;;;;;;;;;;;;;;;5038982;28;20065;-88
2022/12/14 12:45:44;;;;;;;13.52;8.13;;;;;;;;;;5044998;28;19917;-85
2022/12/14 12:48:12;;;;;;;20.85;10.30;;;;;;;;;;5033875;28;20017;-83
2022/12/14 12:50:43;;;;;;;13.63;8.77;;;;;;;;;;5031941;28;20061;-84
2022/12/14 12:53:15;;;;;;;17.55;10.07;;;;;;;;;;5036564;28;20048;-86
2022/12/14 12:55:48;;;;;;;21.45;11.38;;;;;;;;;;5023708;28;20033;-84
2022/12/14 12:58:21;;;;;;;17.17;11.13;;;;;;;;;;5019463;28;20057;-83
2022/12/14 13:00:50;;;;;;;24.35;11.15;;;;;;;;;;5047774;28;20009;-85
2022/12/14 13:03:25;;;;;;;18.33;9.40;;;;;;;;;;5025033;28;20439;-84
2022/12/14 13:05:53;;;;;;;18.63;8.65;;;;;;;;;;5037354;28;20033;-86
2022/12/14 13:08:27;;;;;;;21.25;9.98;;;;;;;;;;5026736;28;20029;-84
2022/12/14 13:10:57;;;;;;;17.08;9.70;;;;;;;;;;5054828;28;20026;-83
2022/12/14 13:13:29;;;;;;;17.25;9.18;;;;;;;;;;5026951;28;20033;-85
2022/12/14 13:16:10;;;;;;;24.50;10.52;;;;;;;;;;5016928;28;20050;-82
2022/12/14 13:18:41;;;;;;;17.30;9.07;;;;;;;;;;5011063;28;20038;-84
2022/12/14 13:21:31;;;;;;;16.58;8.25;;;;;;;;;;5016944;28;20033;-83
2022/12/14 13:28:16;;;;;;;22.48;9.27;;;;;;;;;;4992043;28;20551;-84
2022/12/14 13:30:49;;;;;;;16.10;8.10;;;;;;;;;;4960192;28;20044;-83
2022/12/14 13:33:33;;;;;;;17.92;10.00;;;;;;;;;;5036488;28;20034;-86
2022/12/14 13:36:25;;;;;;;19.02;10.07;;;;;;;;;;5016702;28;20470;-87
2022/12/14 13:39:14;;;;;;;19.52;10.15;;;;;;;;;;5035306;28;20509;-82
2022/12/14 13:42:00;;;;;;;22.02;9.70;;;;;;;;;;5023623;28;20037;-80
2022/12/14 13:44:55;;;;;;;22.25;9.93;;;;;;;;;;5022179;28;20035;-81
2022/12/14 13:47:27;;;;;;;16.48;8.82;;;;;;;;;;5009080;28;20037;-84
2022/12/14 13:50:05;;;;;;;17.85;10.85;;;;;;;;;;5031971;28;20033;-83
2022/12/14 13:52:33;;;;;;;17.70;9.73;;;;;;;;;;5041659;28;20060;-84
2022/12/14 13:54:59;;;;;;;15.68;10.13;;;;;;;;;;5046250;28;20452;-83
2022/12/14 13:57:25;;;;;;;18.98;9.38;;;;;;;;;;5033514;28;20021;-83
2022/12/14 13:59:54;;;;;;;19.00;10.95;;;;;;;;;;5038468;28;20037;-84
2022/12/14 14:02:28;;;;;;;25.08;11.15;;;;;;;;;;5024330;28;20065;-84
2022/12/14 14:05:36;;;;;;;15.95;9.20;;;;;;;;;;5014058;28;20060;-80
2022/12/14 14:08:24;;;;;;;16.58;9.40;;;;;;;;;;5003549;28;20025;-83
2022/12/14 14:10:50;;;;;;;17.58;10.30;;;;;;;;;;5002435;28;20040;-82
2022/12/14 14:13:27;;;;;;;16.10;9.23;;;;;;;;;;5004003;28;20040;-83
2022/12/14 14:16:28;;;;;;;25.50;10.70;;;;;;;;;;4997669;28;20159;-82
2022/12/14 14:19:13;;;;;;;15.10;8.45;;;;;;;;;;5008008;28;20033;-82
2022/12/14 14:21:58;;;;;;;20.70;11.48;;;;;;;;;;5017109;28;20052;-82
2022/12/14 14:24:25;;;;;;;16.95;10.15;;;;;;;;;;5015914;28;20017;-83
2022/12/14 14:27:05;;;;;;;15.05;8.52;;;;;;;;;;5014819;28;20063;-82
2022/12/14 14:29:32;;;;;;;22.83;11.25;;;;;;;;;;5016217;28;20053;-83
2022/12/14 14:32:05;;;;;;;26.63;10.25;;;;;;;;;;5019664;28;20115;-83
2022/12/14 14:34:47;;;;;;;19.40;11.02;;;;;;;;;;5017752;28;20029;-83
2022/12/14 14:37:18;;;;;;;;;;;;;;;;;;4999406;28;20036;-82
2022/12/14 14:39:53;;;;;;;20.08;9.85;;;;;;;;;;4996230;28;19913;-82
2022/12/14 14:42:24;;;;;;;22.48;11.23;;;;;;;;;;5018551;28;20021;-82
2022/12/14 14:44:56;;;;;;;24.75;9.77;;;;;;;;;;5018294;28;20029;-89
2022/12/14 14:47:34;;;;;;;23.13;10.48;;;;;;;;;;5035477;28;20497;-82
2022/12/14 14:50:17;;;;;;;20.60;10.02;;;;;;;;;;5038086;28;20064;-81
2022/12/14 14:52:45;;;;;;;26.40;9.38;;;;;;;;;;5008838;28;20676;-82
2022/12/14 14:55:55;;;;;;;22.65;10.52;;;;;;;;;;5004516;28;20091;-83
2022/12/14 14:58:33;;;;;;;23.77;9.98;;;;;;;;;;4930748;28;20117;-82
2022/12/14 15:01:13;;;;;;;15.90;9.90;;;;;;;;;;5004156;28;20028;-83
2022/12/14 15:04:09;;;;;;;21.63;9.15;;;;;;;;;;5003173;28;20928;-82
2022/12/14 15:06:42;;;;;;;22.08;10.82;;;;;;;;;;5007411;28;20025;-83
2022/12/14 15:09:28;;;;;;;27.77;11.43;;;;;;;;;;4994491;28;20061;-82
2022/12/14 15:12:03;;;;;;;26.42;12.23;;;;;;;;;;4983124;28;20041;-82
2022/12/14 15:14:39;;;;;;;21.63;10.32;;;;;;;;;;4993011;28;20037;-82
2022/12/14 15:17:19;;;;;;;16.48;9.45;;;;;;;;;;4990161;28;20064;-83
2022/12/14 15:19:55;;;;;;;24.90;9.63;;;;;;;;;;5007972;28;20039;-82
2022/12/14 15:22:24;;;;;;;22.20;10.73;;;;;;;;;;4989793;28;20048;-81
2022/12/14 15:24:58;;;;;;;18.90;8.82;;;;;;;;;;5003563;28;20163;-81
2022/12/14 15:27:27;;;;;;;24.13;11.40;;;;;;;;;;4988870;28;20033;-82
2022/12/14 15:30:53;;;;;;;20.80;9.75;;;;;;;;;;5001747;28;20033;-82
2022/12/14 15:33:25;;;;;;;13.63;7.75;;;;;;;;;;4979678;28;20039;-81
2022/12/14 15:35:50;;;;;;;11.90;6.00;;;;;;;;;;5008416;28;20045;-81
2022/12/14 15:38:24;;;;;;;17.52;8.70;;;;;;;;;;4997739;28;20076;-82
2022/12/14 15:41:15;;;;;;;21.92;10.32;;;;;;;;;;5005367;28;20033;-81
2022/12/14 15:43:45;;;;;;;8.98;6.05;;;;;;;;;;5016022;28;20021;-82